createdAt,value
2022-11-07T00:00:47.497Z,78.75
2022-11-07T00:07:51.395Z,78.84
2022-11-07T00:14:52.989Z,78.69
2022-11-07T00:21:54.521Z,78.53
2022-11-07T00:28:56.321Z,78.59
2022-11-07T00:35:57.941Z,79.79
2022-11-07T00:42:59.502Z,80.36
2022-11-07T00:50:01.077Z,80.94
2022-11-07T00:57:02.694Z,81.56
2022-11-07T01:04:22.833Z,81.67
2022-11-07T01:11:25.042Z,82.37
2022-11-07T01:18:26.658Z,81.81
2022-11-07T01:25:28.211Z,81.78
2022-11-07T01:32:29.792Z,81.69
2022-11-07T01:39:31.401Z,81.30
2022-11-07T01:46:39.006Z,81.37
2022-11-07T01:53:40.770Z,81.99
2022-11-07T02:00:42.317Z,81.71
2022-11-07T02:07:43.945Z,81.18
2022-11-07T02:14:45.610Z,81.03
2022-11-07T02:21:50.743Z,80.90
2022-11-07T02:28:52.612Z,80.76
2022-11-07T02:35:54.178Z,81.03
2022-11-07T02:42:55.890Z,80.75
2022-11-07T02:49:57.462Z,80.34
2022-11-07T02:56:59.034Z,80.13
2022-11-07T03:04:00.572Z,80.09
2022-11-07T03:11:02.462Z,79.56
2022-11-07T03:18:04.135Z,80.28
2022-11-07T03:25:06.631Z,80.36
2022-11-07T03:32:08.283Z,80.00
2022-11-07T03:39:09.835Z,80.07
2022-11-07T03:46:15.106Z,79.81
2022-11-07T03:53:22.179Z,79.96
2022-11-07T04:00:25.515Z,79.82
2022-11-07T04:07:27.107Z,79.66
2022-11-07T04:14:46.971Z,79.70
2022-11-07T04:21:48.574Z,79.07
2022-11-07T04:28:50.122Z,78.40
2022-11-07T04:35:51.726Z,78.00
2022-11-07T04:42:53.683Z,78.14
2022-11-07T04:49:55.264Z,77.83
2022-11-07T04:56:56.882Z,77.01
2022-11-07T05:03:58.566Z,76.72
2022-11-07T05:11:00.127Z,77.07
2022-11-07T05:18:01.743Z,76.63
2022-11-07T05:25:03.309Z,76.14
2022-11-07T05:32:05.138Z,75.96
2022-11-07T05:39:06.718Z,75.93
2022-11-07T05:46:11.010Z,75.60
2022-11-07T05:53:12.916Z,75.21
2022-11-07T06:00:15.091Z,74.64
2022-11-07T06:07:16.613Z,74.45
2022-11-07T06:14:18.238Z,74.61
2022-11-07T06:21:19.790Z,74.32
2022-11-07T06:28:21.368Z,74.00
2022-11-07T06:35:22.902Z,73.91
2022-11-07T06:42:25.921Z,73.94
2022-11-07T06:49:27.532Z,73.39
2022-11-07T06:56:29.090Z,73.54
2022-11-07T07:03:30.720Z,73.76
2022-11-07T07:10:35.839Z,73.73
2022-11-07T07:17:37.475Z,73.49
2022-11-07T07:24:39.175Z,73.18
2022-11-07T07:31:41.838Z,72.96
2022-11-07T07:38:43.545Z,72.99
2022-11-07T07:45:45.113Z,72.71
2022-11-07T07:52:46.733Z,72.56
2022-11-07T07:59:48.348Z,72.67
2022-11-07T08:06:49.914Z,72.47
2022-11-07T08:13:51.486Z,72.65
2022-11-07T08:20:54.134Z,72.47
2022-11-07T08:27:55.694Z,72.54
2022-11-07T08:34:57.268Z,72.77
2022-11-07T08:41:58.850Z,72.58
2022-11-07T08:49:00.414Z,72.20
2022-11-07T08:56:06.369Z,71.17
2022-11-07T09:10:29.996Z,70.29
2022-11-07T09:17:31.591Z,70.31
2022-11-07T09:24:33.183Z,69.42
2022-11-07T09:31:34.740Z,68.51
2022-11-07T09:38:36.310Z,68.25
2022-11-07T09:45:44.474Z,66.97
2022-11-07T09:52:52.761Z,66.15
2022-11-07T10:00:26.515Z,65.37
2022-11-07T10:08:11.528Z,66.01
2022-11-07T10:15:27.110Z,66.29
2022-11-07T10:23:00.674Z,66.31
2022-11-07T10:30:02.267Z,66.10
2022-11-07T10:37:04.217Z,66.09
2022-11-07T10:44:09.764Z,65.57
2022-11-07T10:51:11.385Z,65.00
2022-11-07T10:58:18.935Z,64.25
2022-11-07T11:05:26.767Z,63.72
2022-11-07T11:12:34.566Z,62.72
2022-11-07T11:19:41.117Z,61.92
2022-11-07T11:26:43.909Z,60.70
2022-11-07T11:33:48.465Z,60.76
2022-11-07T11:41:03.260Z,60.59
2022-11-07T11:48:30.978Z,60.39
2022-11-07T11:55:37.821Z,59.81
2022-11-07T12:03:11.763Z,59.29
2022-11-07T12:10:34.251Z,59.39
2022-11-07T12:18:01.783Z,59.09
2022-11-07T12:25:12.482Z,58.63
2022-11-07T12:33:04.632Z,58.58
2022-11-07T12:40:08.899Z,58.53
2022-11-07T12:47:32.340Z,58.26
2022-11-07T12:54:44.526Z,58.28
2022-11-07T13:02:09.831Z,58.25
2022-11-07T13:09:33.154Z,58.70
2022-11-07T13:16:35.610Z,58.45
2022-11-07T13:23:37.236Z,58.42
2022-11-07T13:30:39.971Z,59.08
2022-11-07T13:37:41.613Z,59.42
2022-11-07T13:44:43.202Z,59.74
2022-11-07T13:51:46.876Z,60.22
2022-11-07T13:58:49.603Z,60.93
2022-11-07T14:05:51.252Z,61.34
2022-11-07T14:12:55.472Z,61.64
2022-11-07T14:20:14.176Z,61.93
2022-11-07T14:27:15.790Z,62.63
2022-11-07T14:34:18.585Z,62.76
2022-11-07T14:41:20.359Z,63.27
2022-11-07T14:48:27.425Z,63.72
2022-11-07T14:55:31.689Z,64.08
2022-11-07T15:02:33.423Z,64.53
2022-11-07T15:09:35.622Z,64.26
2022-11-07T15:16:38.955Z,64.08
2022-11-07T15:23:40.564Z,64.55
2022-11-07T15:30:42.921Z,64.54
2022-11-07T15:38:00.620Z,64.58
2022-11-07T15:45:02.240Z,65.08
2022-11-07T15:52:03.867Z,65.17
2022-11-07T15:59:05.895Z,65.80
2022-11-07T16:06:15.055Z,66.56
2022-11-07T16:13:16.714Z,66.21
2022-11-07T16:20:20.034Z,66.42
2022-11-07T16:27:21.649Z,66.75
2022-11-07T16:34:23.258Z,66.73
2022-11-07T16:41:24.899Z,66.89
2022-11-07T16:48:27.717Z,67.16
2022-11-07T16:55:29.355Z,67.98
2022-11-07T17:02:31.093Z,68.07
2022-11-07T17:09:32.785Z,68.74
2022-11-07T17:16:36.542Z,68.44
2022-11-07T17:23:38.146Z,68.71
2022-11-07T17:30:39.707Z,68.72
2022-11-07T17:37:41.255Z,69.04
2022-11-07T17:44:42.873Z,69.08
2022-11-07T17:51:44.739Z,68.93
2022-11-07T17:58:47.042Z,69.17
2022-11-07T18:05:51.658Z,69.09
2022-11-07T18:12:53.224Z,69.40
2022-11-07T18:19:54.802Z,69.15
2022-11-07T18:26:56.400Z,69.28
2022-11-07T18:34:02.239Z,69.37
2022-11-07T18:41:05.802Z,68.95
2022-11-07T18:48:07.403Z,68.89
2022-11-07T18:55:09.601Z,69.34
2022-11-07T19:02:12.142Z,69.04
2022-11-07T19:09:13.741Z,69.21
2022-11-07T19:16:16.552Z,69.40
2022-11-07T19:23:18.400Z,69.83
2022-11-07T19:30:20.201Z,70.27
2022-11-07T19:37:21.757Z,70.93
2022-11-07T19:44:23.363Z,70.64
2022-11-07T19:51:24.929Z,70.81
2022-11-07T19:58:26.498Z,70.65
2022-11-07T20:05:34.063Z,70.77
2022-11-07T20:12:35.685Z,70.98
2022-11-07T20:19:37.975Z,70.94
2022-11-07T20:26:39.818Z,70.86
2022-11-07T20:33:41.467Z,70.80
2022-11-07T20:40:43.040Z,71.04
2022-11-07T20:47:44.807Z,70.96
2022-11-07T20:54:46.417Z,71.03
2022-11-07T21:01:50.835Z,70.88
2022-11-07T21:08:52.450Z,70.90
2022-11-07T21:15:54.038Z,71.32
2022-11-07T21:22:55.622Z,71.55
2022-11-07T21:29:57.246Z,71.19
2022-11-07T21:36:58.851Z,71.31
2022-11-07T21:44:00.418Z,71.65
2022-11-07T21:51:10.108Z,71.81
2022-11-07T21:58:11.679Z,71.89
2022-11-07T22:05:15.284Z,71.96
2022-11-07T22:12:16.846Z,72.23
2022-11-07T22:19:18.556Z,71.87
2022-11-07T22:26:22.147Z,71.70
2022-11-07T22:33:23.751Z,71.78
2022-11-07T22:40:25.318Z,71.91
2022-11-07T22:47:26.967Z,72.34
2022-11-07T22:54:28.576Z,72.69
2022-11-07T23:01:32.181Z,72.41
2022-11-07T23:08:33.857Z,72.88
2022-11-07T23:15:35.467Z,73.08
2022-11-07T23:22:37.036Z,72.91
2022-11-07T23:29:38.588Z,73.52
2022-11-07T23:36:46.392Z,73.21
2022-11-07T23:43:52.204Z,73.74
2022-11-07T23:51:02.848Z,73.72
2022-11-07T23:58:30.578Z,74.31
